Time;durP1;ratioP1;P1;durP2;ratioP2;P2;SDS_P1;SDS_P2;PMS_P1;PMS_P2;Temp;Humidity;BMP_temperature;BMP_pressure;BME280_temperature;BME280_humidity;BME280_pressure;Samples;Min_cycle;Max_cycle;Signal;HPM_P1;HPM_P2
2021/10/29 00:00:56;;;;;;;;;;;179.40;2252.80;;;;;;5134585;27;19907;-75
2021/10/29 00:03:22;;;;;;;;;;;179.40;2252.80;;;;;;5106779;27;19965;-77
2021/10/29 00:05:48;;;;;;;;;;;179.30;2252.80;;;;;;5123919;27;19943;-75
2021/10/29 00:08:13;;;;;;;;;;;179.40;2252.80;;;;;;5115206;27;20374;-75
2021/10/29 00:10:39;;;;;;;;;;;179.40;2252.80;;;;;;5129576;27;19931;-75
2021/10/29 00:13:05;;;;;;;;;;;179.20;2252.80;;;;;;5114597;27;19926;-77
2021/10/29 00:15:31;;;;;;;;;;;154.50;2252.80;;;;;;5113745;27;19990;-77
2021/10/29 00:17:57;;;;;;;;;;;154.30;2252.80;;;;;;5129577;27;19918;-76
2021/10/29 00:20:23;;;;;;;;;;;154.10;2252.80;;;;;;5130056;27;20276;-75
2021/10/29 00:22:49;;;;;;;;;;;154.00;2252.80;;;;;;5125724;27;19903;-78
2021/10/29 00:25:14;;;;;;;;;;;153.90;2252.80;;;;;;5130877;27;19903;-75
2021/10/29 00:27:40;;;;;;;;;;;154.00;2252.80;;;;;;5130519;27;19926;-75
2021/10/29 00:30:06;;;;;;;;;;;153.90;2252.80;;;;;;5133329;27;19903;-75
2021/10/29 00:32:32;;;;;;;;;;;154.00;2252.80;;;;;;5128701;27;20092;-75
2021/10/29 00:34:58;;;;;;;;;;;154.00;2252.80;;;;;;5114059;27;20284;-75
2021/10/29 00:37:24;;;;;;;;;;;154.00;2252.80;;;;;;5130494;27;20353;-73
2021/10/29 00:39:49;;;;;;;;;;;153.90;2252.80;;;;;;5130342;27;19937;-75
2021/10/29 00:42:15;;;;;;;;;;;154.10;2252.80;;;;;;5115971;27;19904;-75
2021/10/29 00:44:41;;;;;;;;;;;154.30;2252.80;;;;;;5130319;27;20002;-74
2021/10/29 00:47:06;;;;;;;;;;;154.50;2252.80;;;;;;5127761;27;19950;-78
2021/10/29 00:49:32;;;;;;;;;;;179.30;2252.80;;;;;;5115688;27;19998;-75
2021/10/29 00:51:58;;;;;;;;;;;179.30;2252.80;;;;;;5130387;27;20382;-75
2021/10/29 00:54:23;;;;;;;;;;;154.50;2252.80;;;;;;5115235;27;19972;-75
2021/10/29 00:56:50;;;;;;;;;;;154.40;2252.80;;;;;;5127874;27;20241;-75
2021/10/29 00:59:17;;;;;;;;;;;154.50;2252.80;;;;;;5127492;27;19948;-75
2021/10/29 01:01:43;;;;;;;;;;;154.50;2252.80;;;;;;5130384;27;19913;-75
2021/10/29 01:04:09;;;;;;;;;;;179.30;2252.80;;;;;;5130179;27;19911;-75
2021/10/29 01:06:35;;;;;;;;;;;179.40;2252.80;;;;;;5128566;27;19904;-76
2021/10/29 01:09:00;;;;;;;;;;;179.40;2252.80;;;;;;5133530;27;19907;-75
2021/10/29 01:11:27;;;;;;;;;;;179.40;2252.80;;;;;;5131096;28;19911;-76
2021/10/29 01:13:53;;;;;;;;;;;179.50;2252.80;;;;;;5115276;28;19916;-77
2021/10/29 01:16:20;;;;;;;;;;;179.40;2252.80;;;;;;5131751;28;19911;-78
2021/10/29 01:18:46;;;;;;;;;;;179.30;2252.80;;;;;;5122523;28;19904;-77
2021/10/29 01:21:11;;;;;;;;;;;179.40;2252.80;;;;;;5119660;28;19994;-75
2021/10/29 01:23:37;;;;;;;;;;;179.40;2252.80;;;;;;5115875;28;19991;-75
2021/10/29 01:26:04;;;;;;;;;;;179.20;2252.80;;;;;;5115253;28;19913;-75
2021/10/29 01:28:30;;;;;;;;;;;179.20;2252.80;;;;;;5133610;28;19922;-75
2021/10/29 01:30:55;;;;;;;;;;;154.30;2252.80;;;;;;5123020;28;19912;-76
2021/10/29 01:33:21;;;;;;;;;;;154.50;2252.80;;;;;;5130546;28;19961;-75
2021/10/29 01:35:47;;;;;;;;;;;154.50;2252.80;;;;;;5132671;28;19903;-75
2021/10/29 01:38:13;;;;;;;;;;;179.20;2252.80;;;;;;5133964;28;19907;-75
2021/10/29 01:40:38;;;;;;;;;;;179.40;2252.80;;;;;;5134037;28;20399;-75
2021/10/29 01:43:05;;;;;;;;;;;179.40;2252.80;;;;;;5134028;28;19907;-75
2021/10/29 01:45:34;;;;;;;;;;;179.40;2252.80;;;;;;5133737;28;19907;-76
2021/10/29 01:48:00;;;;;;;;;;;179.40;2252.80;;;;;;5134026;28;19935;-76
2021/10/29 01:50:25;;;;;;;;;;;179.40;2252.80;;;;;;5133631;28;20376;-77
2021/10/29 01:52:51;;;;;;;;;;;179.40;2252.80;;;;;;5133890;28;19911;-75
2021/10/29 01:55:17;;;;;;;;;;;179.30;2252.80;;;;;;5119415;28;19904;-78
2021/10/29 01:57:43;;;;;;;;;;;179.30;2252.80;;;;;;5115496;28;19952;-75
2021/10/29 02:00:09;;;;;;;;;;;179.20;2252.80;;;;;;5115353;28;19907;-78
2021/10/29 02:02:34;;;;;;;;;;;154.30;2252.80;;;;;;5115390;28;19972;-77
2021/10/29 02:05:00;;;;;;;;;;;154.40;2252.80;;;;;;5133723;28;19903;-75
2021/10/29 02:07:26;;;;;;;;;;;154.50;2252.80;;;;;;5100823;28;20485;-76
2021/10/29 02:09:51;;;;;;;;;;;154.50;2252.80;;;;;;5115081;28;20333;-79
2021/10/29 02:12:17;;;;;;;;;;;154.50;2252.80;;;;;;5133231;28;19915;-79
2021/10/29 02:14:43;;;;;;;;;;;154.50;2252.80;;;;;;5115324;28;19911;-77
2021/10/29 02:17:08;;;;;;;;;;;179.20;2252.80;;;;;;5135427;27;20653;-75
2021/10/29 02:19:34;;;;;;;;;;;154.50;2252.80;;;;;;5122985;27;19903;-76
2021/10/29 02:21:59;;;;;;;;;;;154.50;2252.80;;;;;;5130116;27;19951;-79
2021/10/29 02:24:25;;;;;;;;;;;154.40;2252.80;;;;;;5130247;27;19965;-76
2021/10/29 02:26:51;;;;;;;;;;;154.30;2252.80;;;;;;5118744;27;19993;-76
2021/10/29 02:29:16;;;;;;;;;;;154.40;2252.80;;;;;;5118837;27;20001;-76
2021/10/29 02:31:42;;;;;;;;;;;154.40;2252.80;;;;;;5122397;27;19938;-75
2021/10/29 02:34:07;;;;;;;;;;;154.30;2252.80;;;;;;5118260;27;19990;-76
2021/10/29 02:36:33;;;;;;;;;;;154.20;2252.80;;;;;;5118331;27;19908;-75
2021/10/29 02:38:58;;;;;;;;;;;154.40;2252.80;;;;;;5118639;27;19904;-76
2021/10/29 02:41:24;;;;;;;;;;;154.50;2252.80;;;;;;5118644;27;19998;-75
2021/10/29 02:43:50;;;;;;;;;;;154.40;2252.80;;;;;;5136854;27;19908;-75
2021/10/29 02:46:16;;;;;;;;;;;154.30;2252.80;;;;;;5118345;27;19903;-75
2021/10/29 02:48:41;;;;;;;;;;;154.30;2252.80;;;;;;5114230;27;19911;-76
2021/10/29 02:51:07;;;;;;;;;;;154.40;2252.80;;;;;;5125553;27;19907;-76
2021/10/29 02:53:35;;;;;;;;;;;154.50;2252.80;;;;;;5118314;27;19907;-75
2021/10/29 02:56:01;;;;;;;;;;;154.50;2252.80;;;;;;5118349;27;20312;-75
2021/10/29 02:58:28;;;;;;;;;;;154.50;2252.80;;;;;;5104626;28;19904;-75
2021/10/29 03:00:54;;;;;;;;;;;154.50;2252.80;;;;;;5117595;27;19904;-76
2021/10/29 03:03:20;;;;;;;;;;;154.40;2252.80;;;;;;5117970;27;19972;-76
2021/10/29 03:05:45;;;;;;;;;;;154.40;2252.80;;;;;;5117838;27;19903;-75
2021/10/29 03:08:11;;;;;;;;;;;154.30;2252.80;;;;;;5117981;27;19954;-76
2021/10/29 03:10:37;;;;;;;;;;;154.40;2252.80;;;;;;5117583;27;19915;-76
2021/10/29 03:13:02;;;;;;;;;;;154.40;2252.80;;;;;;5132521;27;19923;-76
2021/10/29 03:15:28;;;;;;;;;;;154.50;2252.80;;;;;;5107251;27;19907;-76
2021/10/29 03:17:54;;;;;;;;;;;154.40;2252.80;;;;;;5136094;27;19960;-76
2021/10/29 03:20:20;;;;;;;;;;;154.40;2252.80;;;;;;5136131;27;20340;-75
2021/10/29 03:22:45;;;;;;;;;;;154.30;2252.80;;;;;;5136238;27;20376;-76
2021/10/29 03:25:11;;;;;;;;;;;154.20;2252.80;;;;;;5130409;27;19904;-75
2021/10/29 03:27:37;;;;;;;;;;;154.10;2252.80;;;;;;5108792;27;19964;-75
2021/10/29 03:30:03;;;;;;;;;;;154.10;2252.80;;;;;;5117439;27;19911;-75
2021/10/29 03:32:29;;;;;;;;;;;154.10;2252.80;;;;;;5135732;27;20421;-75
2021/10/29 03:34:54;;;;;;;;;;;154.30;2252.80;;;;;;5135715;27;19938;-76
2021/10/29 03:43:02;;;;;;;;;;;154.30;2252.80;;;;;;5135890;27;19917;-75
2021/10/29 03:45:27;;;;;;;;;;;154.10;2252.80;;;;;;5135499;27;20273;-75
2021/10/29 03:47:58;;;;;;;;;;;153.90;2252.80;;;;;;5116706;27;19915;-75
2021/10/29 03:50:27;;;;;;;;;;;153.90;2252.80;;;;;;5117094;27;19903;-78
2021/10/29 03:53:01;;;;;;;;;;;153.90;2252.80;;;;;;5135600;27;20397;-75
2021/10/29 03:56:01;;;;;;;;;;;153.70;2252.80;;;;;;5116947;27;19911;-76
2021/10/29 03:58:19;;;;;;;;;;;153.90;2252.80;;;;;;5129300;27;19910;-78
2021/10/29 04:00:44;;;;;;;;;;;153.60;2252.80;;;;;;5135335;27;19980;-76
2021/10/29 04:03:10;;;;;;;;;;;153.60;2252.80;;;;;;5124813;27;20288;-75
2021/10/29 04:05:36;;;;;;;;;;;153.60;2252.80;;;;;;5112988;27;20272;-75
2021/10/29 04:08:01;;;;;;;;;;;153.60;2252.80;;;;;;5135041;27;20364;-75
2021/10/29 04:10:29;;;;;;;;;;;153.60;2252.80;;;;;;5134709;27;19907;-75
2021/10/29 04:12:56;;;;;;;;;;;128.90;2252.80;;;;;;5135015;27;19973;-75
2021/10/29 04:15:22;;;;;;;;;;;128.90;2252.80;;;;;;5116699;27;20068;-75
2021/10/29 04:17:48;;;;;;;;;;;153.70;2252.80;;;;;;5134857;27;19907;-76
2021/10/29 04:20:13;;;;;;;;;;;153.90;2252.80;;;;;;5134839;27;19911;-78
2021/10/29 04:22:39;;;;;;;;;;;153.90;2252.80;;;;;;5116526;27;20403;-75
2021/10/29 04:25:05;;;;;;;;;;;153.70;2252.80;;;;;;5120311;27;19903;-75
2021/10/29 04:27:35;;;;;;;;;;;153.80;2252.80;;;;;;5134725;27;19907;-76
2021/10/29 04:30:01;;;;;;;;;;;154.00;2252.80;;;;;;5134790;27;19904;-78
2021/10/29 04:32:27;;;;;;;;;;;154.00;2252.80;;;;;;5116373;27;19904;-76
2021/10/29 04:34:53;;;;;;;;;;;153.90;2252.80;;;;;;5134612;27;19918;-79
2021/10/29 04:37:18;;;;;;;;;;;154.00;2252.80;;;;;;5134755;27;19914;-75
2021/10/29 04:39:45;;;;;;;;;;;153.90;2252.80;;;;;;5115557;27;19952;-75
2021/10/29 04:42:11;;;;;;;;;;;153.80;2252.80;;;;;;5134311;27;19907;-75
2021/10/29 04:44:37;;;;;;;;;;;153.90;2252.80;;;;;;5134620;27;20002;-76
2021/10/29 04:47:02;;;;;;;;;;;153.80;2252.80;;;;;;5130864;27;19911;-76
2021/10/29 04:49:28;;;;;;;;;;;153.80;2252.80;;;;;;5105098;27;19964;-75
2021/10/29 04:51:53;;;;;;;;;;;153.60;2252.80;;;;;;5134252;27;20356;-75
2021/10/29 04:54:19;;;;;;;;;;;128.90;2252.80;;;;;;5134381;27;19911;-75
2021/10/29 04:56:47;;;;;;;;;;;128.80;2252.80;;;;;;5116033;27;19997;-75
2021/10/29 04:59:15;;;;;;;;;;;128.70;2252.80;;;;;;5134357;27;20268;-76
2021/10/29 05:01:43;;;;;;;;;;;128.90;2252.80;;;;;;5134325;27;19903;-75
2021/10/29 05:04:09;;;;;;;;;;;153.60;2252.80;;;;;;5134413;27;19910;-75
2021/10/29 05:06:35;;;;;;;;;;;128.70;2252.80;;;;;;5115242;28;19904;-76
2021/10/29 05:09:00;;;;;;;;;;;128.70;2252.80;;;;;;5134161;27;20360;-77
2021/10/29 05:11:26;;;;;;;;;;;128.70;2252.80;;;;;;5114776;28;20406;-75
2021/10/29 05:13:52;;;;;;;;;;;128.80;2252.80;;;;;;5134131;28;20353;-76
2021/10/29 05:16:17;;;;;;;;;;;128.80;2252.80;;;;;;5134181;28;19903;-74
2021/10/29 05:18:43;;;;;;;;;;;153.60;2252.80;;;;;;5132112;28;20604;-75
2021/10/29 05:21:08;;;;;;;;;;;153.60;2252.80;;;;;;5113477;28;19910;-75
2021/10/29 05:23:34;;;;;;;;;;;153.90;2252.80;;;;;;5100250;28;19947;-77
2021/10/29 05:26:00;;;;;;;;;;;153.80;2252.80;;;;;;5132549;28;19950;-76
2021/10/29 05:28:25;;;;;;;;;;;154.00;2252.80;;;;;;5114019;28;19918;-78
2021/10/29 05:30:51;;;;;;;;;;;154.00;2252.80;;;;;;5113856;28;19912;-77
2021/10/29 05:33:16;;;;;;;;;;;154.10;2252.80;;;;;;5114710;28;19903;-79
2021/10/29 05:35:42;;;;;;;;;;;154.10;2252.80;;;;;;5115667;28;20284;-75
2021/10/29 05:38:08;;;;;;;;;;;154.10;2252.80;;;;;;5134032;28;19938;-75
2021/10/29 05:40:33;;;;;;;;;;;154.20;2252.80;;;;;;5134020;28;19911;-75
2021/10/29 05:42:59;;;;;;;;;;;154.50;2252.80;;;;;;5115439;28;20359;-75
2021/10/29 05:45:24;;;;;;;;;;;154.50;2252.80;;;;;;5115580;28;19925;-75
2021/10/29 05:47:50;;;;;;;;;;;179.20;2252.80;;;;;;5115550;28;20269;-78
2021/10/29 05:50:15;;;;;;;;;;;154.50;2252.80;;;;;;5133696;27;19904;-78
2021/10/29 05:52:44;;;;;;;;;;;154.40;2252.80;;;;;;5118150;27;19977;-75
2021/10/29 05:55:17;;;;;;;;;;;154.40;2252.80;;;;;;5137555;27;19903;-75
2021/10/29 05:57:47;;;;;;;;;;;154.50;2252.80;;;;;;5124651;27;20052;-77
2021/10/29 06:00:14;;;;;;;;;;;179.20;2252.80;;;;;;5137218;27;19907;-76
2021/10/29 06:02:40;;;;;;;;;;;154.50;2252.80;;;;;;5134787;27;19914;-75
2021/10/29 06:05:06;;;;;;;;;;;179.20;2252.80;;;;;;5137113;27;19942;-76
2021/10/29 06:07:32;;;;;;;;;;;179.30;2252.80;;;;;;5118807;27;19968;-75
2021/10/29 06:09:58;;;;;;;;;;;179.20;2252.80;;;;;;5137691;27;19904;-75
2021/10/29 06:12:24;;;;;;;;;;;179.20;2252.80;;;;;;5137019;27;20304;-76
2021/10/29 06:14:50;;;;;;;;;;;179.20;2252.80;;;;;;5137121;27;19950;-74
2021/10/29 06:17:18;;;;;;;;;;;179.30;2252.80;;;;;;5137512;27;20006;-78
2021/10/29 06:19:45;;;;;;;;;;;179.40;2252.80;;;;;;5118336;27;20360;-74
2021/10/29 06:24:40;;;;;;;;;;;179.70;2252.80;;;;;;5137050;27;19949;-76
2021/10/29 06:27:12;;;;;;;;;;;179.80;2252.80;;;;;;5131110;27;19907;-78
2021/10/29 06:29:37;;;;;;;;;;;179.80;2252.80;;;;;;5127755;27;19915;-77
2021/10/29 06:32:04;;;;;;;;;;;180.00;2252.80;;;;;;5143814;27;20633;-78
2021/10/29 06:34:31;;;;;;;;;;;180.00;2252.80;;;;;;5110346;28;20368;-77
2021/10/29 06:36:57;;;;;;;;;;;180.10;2252.80;;;;;;5119075;27;20329;-77
2021/10/29 06:39:23;;;;;;;;;;;204.80;2252.80;;;;;;5101149;27;19952;-76
2021/10/29 06:41:52;;;;;;;;;;;204.90;2252.80;;;;;;5115295;27;19914;-79
2021/10/29 07:40:49;;;;;;;;;;;256.60;2252.80;;;;;;5135617;27;19937;-78
2021/10/29 07:44:18;;;;;;;;;;;256.90;2252.80;;;;;;5135504;27;19907;-77
2021/10/29 07:46:11;;;;;;;;;;;256.80;2252.80;;;;;;5098770;27;20271;-77
2021/10/29 07:48:36;;;;;;;;;;;281.80;2278.40;;;;;;5102343;27;19912;-77
2021/10/29 07:51:02;;;;;;;;;;;282.00;2278.40;;;;;;5121304;27;19972;-77
2021/10/29 07:53:29;;;;;;;;;;;282.10;2278.40;;;;;;5135356;27;20274;-77
2021/10/29 07:55:58;;;;;;;;;;;282.30;2278.40;;;;;;5131521;27;19914;-77
2021/10/29 07:58:24;;;;;;;;;;;282.30;2278.40;;;;;;5131229;27;19903;-78
2021/10/29 08:00:49;;;;;;;;;;;282.40;2278.40;;;;;;5131943;27;20280;-78
2021/10/29 08:03:16;;;;;;;;;;;282.50;2278.40;;;;;;5135300;27;19903;-77
2021/10/29 08:05:45;;;;;;;;;;;282.50;2278.40;;;;;;5135195;27;20360;-78
2021/10/29 08:08:11;;;;;;;;;;;307.30;2304.00;;;;;;5135013;27;19919;-78
2021/10/29 08:10:37;;;;;;;;;;;307.40;2304.00;;;;;;5134940;27;20269;-78
2021/10/29 08:13:04;;;;;;;;;;;307.50;2304.00;;;;;;5134617;27;19924;-78
2021/10/29 08:15:30;;;;;;;;;;;307.60;2304.00;;;;;;5112449;27;19911;-78
2021/10/29 08:17:56;;;;;;;;;;;307.70;2304.00;;;;;;5132600;27;19934;-79
2021/10/29 08:20:23;;;;;;;;;;;307.90;2304.00;;;;;;5134661;27;20281;-78
2021/10/29 08:22:50;;;;;;;;;;;332.90;2329.60;;;;;;5134294;27;19911;-77
2021/10/29 08:25:16;;;;;;;;;;;333.00;2329.60;;;;;;5124876;27;20345;-80
2021/10/29 08:27:41;;;;;;;;;;;333.10;2329.60;;;;;;5134700;27;19912;-75
2021/10/29 08:30:08;;;;;;;;;;;333.30;2329.60;;;;;;5115711;27;19904;-78
2021/10/29 08:32:35;;;;;;;;;;;333.40;2329.60;;;;;;5131403;27;19943;-76
2021/10/29 08:35:01;;;;;;;;;;;333.60;2329.60;;;;;;5126172;27;19904;-75
2021/10/29 08:37:30;;;;;;;;;;;333.70;2329.60;;;;;;5128526;27;19922;-78
2021/10/29 08:39:56;;;;;;;;;;;358.50;2329.60;;;;;;5132317;27;19910;-77
2021/10/29 08:42:23;;;;;;;;;;;358.60;2329.60;;;;;;5131428;27;19907;-79
2021/10/29 08:44:49;;;;;;;;;;;358.70;2329.60;;;;;;5131694;27;20280;-79
2021/10/29 08:47:21;;;;;;;;;;;358.80;2329.60;;;;;;5128996;27;19912;-79
2021/10/29 08:49:47;;;;;;;;;;;359.00;2329.60;;;;;;5123925;27;19911;-79
2021/10/29 08:52:16;;;;;;;;;;;359.10;2329.60;;;;;;5126100;27;19911;-78
2021/10/29 08:54:42;;;;;;;;;;;384.00;2329.60;;;;;;5132912;27;20311;-79
2021/10/29 08:57:08;;;;;;;;;;;384.30;2329.60;;;;;;5115543;27;19903;-79
2021/10/29 08:59:38;;;;;;;;;;;384.50;2329.60;;;;;;5134482;27;19911;-79
2021/10/29 09:02:22;;;;;;;;;;;384.60;2329.60;;;;;;5102879;28;20279;-79
2021/10/29 09:07:25;;;;;;;;;;;409.80;2201.60;;;;;;5131201;27;19937;-79
2021/10/29 09:32:57;;;;;;;;;;;435.60;1843.20;;;;;;5133317;27;20003;-79
2021/10/29 09:35:24;;;;;;;;;;;435.60;1843.20;;;;;;5137532;27;19913;-79
2021/10/29 09:37:56;;;;;;;;;;;435.80;1843.20;;;;;;5134930;27;19908;-78
2021/10/29 09:40:23;;;;;;;;;;;435.90;1792.00;;;;;;5133765;27;20250;-78
2021/10/29 09:42:51;;;;;;;;;;;435.90;1766.40;;;;;;5137873;27;19926;-79
2021/10/29 09:45:18;;;;;;;;;;;436.00;1740.80;;;;;;5137003;27;20290;-78
2021/10/29 09:47:49;;;;;;;;;;;436.10;1689.60;;;;;;5118136;27;20303;-78
2021/10/29 09:50:26;;;;;;;;;;;436.10;1689.60;;;;;;5134724;27;19915;-79
2021/10/29 09:53:03;;;;;;;;;;;460.90;1715.20;;;;;;5115954;27;19907;-76
2021/10/29 09:55:49;;;;;;;;;;;460.90;1689.60;;;;;;5136325;27;19997;-79
2021/10/29 09:58:16;;;;;;;;;;;460.90;1689.60;;;;;;5138125;27;19952;-82
2021/10/29 10:00:42;;;;;;;;;;;461.10;1664.00;;;;;;5136879;27;20311;-76
2021/10/29 10:03:08;;;;;;;;;;;461.10;1638.40;;;;;;5115045;28;19908;-79
2021/10/29 10:05:34;;;;;;;;;;;461.20;1664.00;;;;;;5132584;27;19918;-78
2021/10/29 10:08:00;;;;;;;;;;;461.20;1612.80;;;;;;5137161;27;19911;-77
2021/10/29 10:10:26;;;;;;;;;;;461.20;1587.20;;;;;;5118406;27;20201;-78
2021/10/29 10:12:52;;;;;;;;;;;461.40;1638.40;;;;;;5113383;28;20014;-76
2021/10/29 10:15:19;;;;;;;;;;;461.40;1587.20;;;;;;5135145;27;20396;-79
2021/10/29 10:17:45;;;;;;;;;;;461.60;1587.20;;;;;;5137356;27;19943;-76
2021/10/29 10:20:11;;;;;;;;;;;461.70;1587.20;;;;;;5133804;27;19942;-76
2021/10/29 10:22:39;;;;;;;;;;;486.40;1510.40;;;;;;5136523;27;19904;-77
2021/10/29 10:25:09;;;;;;;;;;;486.40;1510.40;;;;;;5127211;27;20323;-79
2021/10/29 10:30:43;;;;;;;;;;;486.70;1510.40;;;;;;5134645;27;19915;-79
2021/10/29 10:46:55;;;;;;;;;;;487.10;1408.00;;;;;;5093808;28;20057;-78
2021/10/29 10:49:31;;;;;;;;;;;512.00;1408.00;;;;;;5094073;28;19912;-78
2021/10/29 10:52:08;;;;;;;;;;;487.30;1356.80;;;;;;5093584;28;19954;-79
2021/10/29 10:54:45;;;;;;;;;;;487.30;1356.80;;;;;;5084062;28;19913;-77
2021/10/29 11:00:33;;;;;;;;;;;512.10;1305.60;;;;;;5084334;28;19957;-76
2021/10/29 11:10:57;;;;;;;;;;;512.50;1305.60;;;;;;5083386;28;20341;-79
2021/10/29 11:13:24;;;;;;;;;;;512.40;1254.40;;;;;;5084343;28;19920;-75
2021/10/29 11:15:56;;;;;;;;;;;512.40;1280.00;;;;;;5082455;28;19927;-78
2021/10/29 11:18:26;;;;;;;;;;;512.20;1228.80;;;;;;5081540;28;19912;-79
2021/10/29 11:20:53;;;;;;;;;;;512.40;1254.40;;;;;;5083394;28;20464;-77
2021/10/29 11:23:32;;;;;;;;;;;512.40;1280.00;;;;;;5093670;27;20356;-79
2021/10/29 11:26:06;;;;;;;;;;;512.60;1254.40;;;;;;5134598;27;19908;-76
2021/10/29 11:28:40;;;;;;;;;;;512.90;1228.80;;;;;;5133340;27;20002;-79
2021/10/29 11:31:07;;;;;;;;;;;512.70;1254.40;;;;;;5134127;27;19904;-78
2021/10/29 11:33:33;;;;;;;;;;;512.90;1280.00;;;;;;5135448;27;19903;-79
2021/10/29 11:36:00;;;;;;;;;;;537.60;1254.40;;;;;;5135487;27;19914;-76
2021/10/29 11:38:26;;;;;;;;;;;512.90;1228.80;;;;;;5135378;27;20379;-80
2021/10/29 11:40:52;;;;;;;;;;;537.90;1280.00;;;;;;5124479;27;19907;-78
2021/10/29 11:43:24;;;;;;;;;;;537.70;1280.00;;;;;;5135402;27;20276;-79
2021/10/29 11:45:50;;;;;;;;;;;537.70;1254.40;;;;;;5135384;27;19949;-81
2021/10/29 11:48:16;;;;;;;;;;;537.70;1254.40;;;;;;5135418;27;19911;-80
2021/10/29 11:50:42;;;;;;;;;;;537.60;1254.40;;;;;;5135539;27;19903;-78
2021/10/29 11:53:09;;;;;;;;;;;537.60;1280.00;;;;;;5135425;27;20253;-75
2021/10/29 11:55:44;;;;;;;;;;;512.90;1228.80;;;;;;5135208;27;19973;-78
2021/10/29 12:01:12;;;;;;;;;;;537.60;1254.40;;;;;;5053227;28;19994;-79
2021/10/29 12:09:04;;;;;;;;;;;512.80;1203.20;;;;;;5054417;28;20019;-80
2021/10/29 12:11:31;;;;;;;;;;;512.70;1228.80;;;;;;5053120;28;19920;-78
2021/10/29 12:14:01;;;;;;;;;;;512.80;1228.80;;;;;;5064116;28;19909;-78
2021/10/29 12:16:28;;;;;;;;;;;512.90;1228.80;;;;;;5071900;28;19908;-79
2021/10/29 12:19:04;;;;;;;;;;;512.90;1228.80;;;;;;5071934;28;19931;-75
2021/10/29 12:21:37;;;;;;;;;;;512.90;1254.40;;;;;;5071570;28;20358;-76
2021/10/29 12:24:06;;;;;;;;;;;512.90;1254.40;;;;;;5069563;28;19911;-78
2021/10/29 12:26:38;;;;;;;;;;;512.90;1254.40;;;;;;5071762;28;20305;-79
2021/10/29 12:29:11;;;;;;;;;;;512.80;1228.80;;;;;;5071510;28;20074;-78
2021/10/29 12:32:05;;;;;;;;;;;512.90;1280.00;;;;;;5063525;28;19920;-78
2021/10/29 12:37:43;;;;;;;;;;;512.60;1228.80;;;;;;5078435;27;19915;-77
2021/10/29 12:58:48;;;;;;;;;;;512.30;1254.40;;;;;;5133428;27;19921;-83
2021/10/29 13:02:34;;;;;;;;;;;512.20;1254.40;;;;;;5134440;27;19960;-76
2021/10/29 13:05:00;;;;;;;;;;;512.10;1254.40;;;;;;5134498;27;19904;-76
2021/10/29 13:07:27;;;;;;;;;;;512.10;1254.40;;;;;;5129746;27;19907;-76
2021/10/29 13:10:04;;;;;;;;;;;487.30;1254.40;;;;;;5131947;27;20371;-76
2021/10/29 13:12:39;;;;;;;;;;;487.20;1254.40;;;;;;5134104;27;19915;-79
2021/10/29 13:15:09;;;;;;;;;;;487.20;1254.40;;;;;;5120241;28;20364;-75
2021/10/29 13:17:38;;;;;;;;;;;487.10;1254.40;;;;;;5134428;27;19956;-83
2021/10/29 13:57:34;;;;;;;;;;;486.50;1254.40;;;;;;5133504;28;19915;-74
2021/10/29 14:34:50;;;;;;;;;;;461.20;1331.20;;;;;;5134069;27;20473;-72
2021/10/29 14:37:29;;;;;;;;;;;461.10;1382.40;;;;;;5136296;27;19928;-74
2021/10/29 14:40:11;;;;;;;;;;;461.70;1382.40;;;;;;5135231;27;19904;-73
2021/10/29 14:42:41;;;;;;;;;;;460.90;1382.40;;;;;;5135590;27;19987;-74
2021/10/29 15:06:56;;;;;;;;;;;435.60;1408.00;;;;;;5033479;28;20282;-79
2021/10/29 15:31:09;;;;;;;;;;;410.20;1459.20;;;;;;5032155;28;19940;-73
2021/10/29 15:44:24;;;;;;;;;;;409.70;1484.80;;;;;;5054004;28;19908;-75
2021/10/29 15:51:49;;;;;;;;;;;384.80;1484.80;;;;;;5062339;28;19911;-74
2021/10/29 15:54:15;;;;;;;;;;;384.70;1484.80;;;;;;5060565;28;19904;-74
2021/10/29 15:56:45;;;;;;;;;;;384.70;1484.80;;;;;;5060376;28;19908;-75
2021/10/29 16:17:49;;;;;;;;;;;384.20;1587.20;;;;;;5135687;27;20306;-73
2021/10/29 16:20:15;;;;;;;;;;;384.10;1612.80;;;;;;5118233;27;19903;-78
2021/10/29 16:22:41;;;;;;;;;;;384.10;1612.80;;;;;;5114651;28;19911;-73
2021/10/29 16:25:14;;;;;;;;;;;384.10;1612.80;;;;;;5114559;28;20267;-73
2021/10/29 16:30:05;;;;;;;;;;;384.00;1638.40;;;;;;5135095;27;19904;-75
2021/10/29 16:35:16;;;;;;;;;;;384.00;1664.00;;;;;;5134449;27;19910;-75
2021/10/29 16:37:42;;;;;;;;;;;359.30;1664.00;;;;;;5134602;27;19926;-78
2021/10/29 16:40:08;;;;;;;;;;;359.30;1689.60;;;;;;5134313;27;19952;-79
2021/10/29 16:42:34;;;;;;;;;;;359.20;1689.60;;;;;;5124279;27;20378;-73
2021/10/29 16:44:59;;;;;;;;;;;359.20;1715.20;;;;;;5133382;27;19998;-74
2021/10/29 16:47:27;;;;;;;;;;;359.10;1740.80;;;;;;5134138;27;19917;-75
2021/10/29 16:49:53;;;;;;;;;;;359.10;1740.80;;;;;;5133886;27;19943;-73
2021/10/29 16:52:18;;;;;;;;;;;359.10;1766.40;;;;;;5134555;27;20365;-73
2021/10/29 16:54:44;;;;;;;;;;;359.00;1766.40;;;;;;5134623;27;19907;-72
2021/10/29 16:57:10;;;;;;;;;;;359.00;1792.00;;;;;;5134536;27;20276;-78
2021/10/29 16:59:35;;;;;;;;;;;358.90;1817.60;;;;;;5134880;27;19977;-75
2021/10/29 17:02:01;;;;;;;;;;;358.90;1817.60;;;;;;5134671;27;19990;-74
2021/10/29 17:04:26;;;;;;;;;;;358.90;1843.20;;;;;;5134629;27;19910;-75
2021/10/29 17:06:52;;;;;;;;;;;358.90;1843.20;;;;;;5134573;27;19903;-78
2021/10/29 17:09:18;;;;;;;;;;;358.80;1868.80;;;;;;5134659;27;20283;-80
2021/10/29 17:11:43;;;;;;;;;;;358.80;1868.80;;;;;;5134344;27;19937;-80
2021/10/29 17:14:09;;;;;;;;;;;358.80;1868.80;;;;;;5134823;27;19917;-77
2021/10/29 17:16:35;;;;;;;;;;;358.80;1868.80;;;;;;5134114;27;19933;-77
2021/10/29 17:19:01;;;;;;;;;;;358.80;1868.80;;;;;;5123690;27;19949;-80
2021/10/29 17:21:26;;;;;;;;;;;358.90;1868.80;;;;;;5123205;28;19907;-77
2021/10/29 17:23:52;;;;;;;;;;;358.90;1894.40;;;;;;5125563;28;19910;-76
2021/10/29 17:26:18;;;;;;;;;;;358.90;1894.40;;;;;;5133414;28;19908;-73
2021/10/29 17:28:43;;;;;;;;;;;358.90;1894.40;;;;;;5133254;28;20028;-74
2021/10/29 17:31:09;;;;;;;;;;;358.90;1894.40;;;;;;5133743;28;19904;-74
2021/10/29 17:33:34;;;;;;;;;;;358.90;1920.00;;;;;;5125222;28;20253;-77
2021/10/29 17:36:00;;;;;;;;;;;358.80;1920.00;;;;;;5133611;27;19904;-74
2021/10/29 17:38:26;;;;;;;;;;;358.80;1945.60;;;;;;5133714;27;19907;-74
2021/10/29 17:40:51;;;;;;;;;;;358.80;1945.60;;;;;;5133419;28;19907;-74
2021/10/29 17:43:17;;;;;;;;;;;358.80;1945.60;;;;;;5133595;28;19908;-73
2021/10/29 17:45:44;;;;;;;;;;;358.80;1971.20;;;;;;5133352;28;19910;-74
2021/10/29 17:48:10;;;;;;;;;;;358.80;1971.20;;;;;;5136942;27;19947;-74
2021/10/29 17:50:36;;;;;;;;;;;358.80;1971.20;;;;;;5137752;27;19955;-78
2021/10/29 17:53:02;;;;;;;;;;;358.80;1971.20;;;;;;5137522;27;19904;-76
2021/10/29 17:55:31;;;;;;;;;;;358.80;1996.80;;;;;;5138173;27;19909;-76
2021/10/29 17:57:57;;;;;;;;;;;358.80;1996.80;;;;;;5138055;27;19904;-75
2021/10/29 18:00:23;;;;;;;;;;;358.80;1996.80;;;;;;5137657;27;19954;-75
2021/10/29 18:02:48;;;;;;;;;;;358.70;2022.40;;;;;;5137409;27;19907;-76
2021/10/29 18:05:16;;;;;;;;;;;358.60;2022.40;;;;;;5133050;27;19907;-74
2021/10/29 18:07:42;;;;;;;;;;;358.50;2048.00;;;;;;5134582;27;19914;-77
2021/10/29 18:10:10;;;;;;;;;;;358.50;2048.00;;;;;;5135877;27;19907;-74
2021/10/29 18:12:35;;;;;;;;;;;358.40;2073.60;;;;;;5136825;27;20045;-75
2021/10/29 18:15:01;;;;;;;;;;;358.40;2073.60;;;;;;5137084;27;19939;-79
2021/10/29 18:17:26;;;;;;;;;;;358.40;2099.20;;;;;;5127099;27;19911;-74
2021/10/29 18:19:52;;;;;;;;;;;333.70;2099.20;;;;;;5137296;27;19910;-78
2021/10/29 18:22:18;;;;;;;;;;;333.70;2099.20;;;;;;5136888;27;19904;-78
2021/10/29 18:24:43;;;;;;;;;;;333.60;2124.80;;;;;;5136987;27;19907;-74
2021/10/29 18:27:10;;;;;;;;;;;333.60;2124.80;;;;;;5126019;27;19903;-78
2021/10/29 18:29:36;;;;;;;;;;;333.50;2150.40;;;;;;5137235;27;19911;-79
2021/10/29 18:32:03;;;;;;;;;;;333.60;2150.40;;;;;;5137153;27;19910;-74
2021/10/29 18:34:28;;;;;;;;;;;333.40;2150.40;;;;;;5137153;27;19911;-73
2021/10/29 18:36:55;;;;;;;;;;;333.50;2176.00;;;;;;5136857;27;19920;-74
2021/10/29 18:39:21;;;;;;;;;;;333.40;2176.00;;;;;;5133801;27;20002;-77
2021/10/29 18:41:47;;;;;;;;;;;333.50;2176.00;;;;;;5136891;27;19958;-79
2021/10/29 18:44:12;;;;;;;;;;;333.50;2176.00;;;;;;5137177;27;20002;-74
2021/10/29 18:46:38;;;;;;;;;;;333.70;2150.40;;;;;;5137095;27;19907;-76